sensor_id;sensor_type;location;lat;lon;timestamp;pressure;altitude;pressure_sealevel;temperature;humidity
2875;BME280;1445;52.600;13.328;2024-03-02T00:00:08;77625.53;;;-145.99;100.00
2875;BME280;1445;52.600;13.328;2024-03-02T00:02:40;77604.53;;;-145.99;100.00
2875;BME280;1445;52.600;13.328;2024-03-02T00:05:06;77610.81;;;-145.99;100.00
2875;BME280;1445;52.600;13.328;2024-03-02T00:07:32;77606.63;;;-145.99;100.00
2875;BME280;1445;52.600;13.328;2024-03-02T00:09:58;77606.63;;;-145.99;100.00
2875;BME280;1445;52.600;13.328;2024-03-02T00:12:23;77606.63;;;-145.99;100.00
2875;BME280;1445;52.600;13.328;2024-03-02T00:14:49;77602.41;;;-145.99;100.00
2875;BME280;1445;52.600;13.328;2024-03-02T00:17:21;77608.72;;;-145.99;100.00
2875;BME280;1445;52.600;13.328;2024-03-02T00:19:49;77596.13;;;-145.99;100.00
2875;BME280;1445;52.600;13.328;2024-03-02T00:22:15;77598.22;;;-145.99;100.00
2875;BME280;1445;52.600;13.328;2024-03-02T00:24:40;77589.81;;;-145.99;100.00
2875;BME280;1445;52.600;13.328;2024-03-02T00:27:07;77594.00;;;-145.99;100.00
2875;BME280;1445;52.600;13.328;2024-03-02T00:29:34;77589.81;;;-145.99;100.00
2875;BME280;1445;52.600;13.328;2024-03-02T00:32:00;77587.72;;;-145.99;100.00
2875;BME280;1445;52.600;13.328;2024-03-02T00:34:26;77575.09;;;-145.99;100.00
2875;BME280;1445;52.600;13.328;2024-03-02T00:36:51;77581.41;;;-145.99;100.00
2875;BME280;1445;52.600;13.328;2024-03-02T00:39:18;77579.31;;;-145.99;100.00
2875;BME280;1445;52.600;13.328;2024-03-02T00:41:43;77573.00;;;-145.99;100.00
2875;BME280;1445;52.600;13.328;2024-03-02T00:44:12;77564.59;;;-145.99;100.00
2875;BME280;1445;52.600;13.328;2024-03-02T00:46:39;77562.50;;;-145.99;100.00
2875;BME280;1445;52.600;13.328;2024-03-02T00:51:36;77552.00;;;-145.99;100.00
2875;BME280;1445;52.600;13.328;2024-03-02T00:54:04;77543.59;;;-145.99;100.00
2875;BME280;1445;52.600;13.328;2024-03-02T00:56:30;77545.72;;;-145.99;100.00
2875;BME280;1445;52.600;13.328;2024-03-02T00:58:56;77549.91;;;-145.99;100.00
2875;BME280;1445;52.600;13.328;2024-03-02T01:01:22;77570.91;;;-145.99;100.00
2875;BME280;1445;52.600;13.328;2024-03-02T01:03:48;77573.00;;;-145.99;100.00
2875;BME280;1445;52.600;13.328;2024-03-02T01:06:17;77585.63;;;-145.99;100.00
2875;BME280;1445;52.600;13.328;2024-03-02T01:08:43;77585.63;;;-145.99;100.00
2875;BME280;1445;52.600;13.328;2024-03-02T01:11:08;77596.13;;;-145.99;100.00
2875;BME280;1445;52.600;13.328;2024-03-02T01:13:37;77606.63;;;-145.99;100.00
2875;BME280;1445;52.600;13.328;2024-03-02T01:16:02;77594.00;;;-145.99;100.00
2875;BME280;1445;52.600;13.328;2024-03-02T01:18:28;77598.22;;;-145.99;100.00
2875;BME280;1445;52.600;13.328;2024-03-02T01:20:54;77591.91;;;-145.99;100.00
2875;BME280;1445;52.600;13.328;2024-03-02T01:23:23;77587.72;;;-145.99;100.00
2875;BME280;1445;52.600;13.328;2024-03-02T01:25:49;77594.00;;;-145.99;100.00
2875;BME280;1445;52.600;13.328;2024-03-02T01:28:15;77589.81;;;-145.99;100.00
2875;BME280;1445;52.600;13.328;2024-03-02T01:30:41;77589.81;;;-145.99;100.00
2875;BME280;1445;52.600;13.328;2024-03-02T01:33:07;77589.81;;;-145.99;100.00
2875;BME280;1445;52.600;13.328;2024-03-02T01:35:32;77594.00;;;-145.99;100.00
2875;BME280;1445;52.600;13.328;2024-03-02T01:37:58;77606.63;;;-145.99;100.00
2875;BME280;1445;52.600;13.328;2024-03-02T01:40:24;77610.81;;;-145.99;100.00
2875;BME280;1445;52.600;13.328;2024-03-02T01:42:53;77600.31;;;-145.99;100.00
2875;BME280;1445;52.600;13.328;2024-03-02T01:45:20;77583.50;;;-145.99;100.00
2875;BME280;1445;52.600;13.328;2024-03-02T01:47:45;77591.91;;;-145.99;100.00
2875;BME280;1445;52.600;13.328;2024-03-02T01:50:11;77600.31;;;-145.99;100.00
2875;BME280;1445;52.600;13.328;2024-03-02T01:52:37;77610.81;;;-145.99;100.00
2875;BME280;1445;52.600;13.328;2024-03-02T01:55:03;77619.22;;;-145.99;100.00
2875;BME280;1445;52.600;13.328;2024-03-02T01:57:29;77612.91;;;-145.99;100.00
2875;BME280;1445;52.600;13.328;2024-03-02T01:59:55;77621.31;;;-145.99;100.00
2875;BME280;1445;52.600;13.328;2024-03-02T02:02:21;77612.91;;;-145.99;100.00
2875;BME280;1445;52.600;13.328;2024-03-02T02:04:48;77610.81;;;-145.99;100.00
2875;BME280;1445;52.600;13.328;2024-03-02T02:07:14;77617.13;;;-145.99;100.00
2875;BME280;1445;52.600;13.328;2024-03-02T02:09:42;77621.31;;;-145.99;100.00
2875;BME280;1445;52.600;13.328;2024-03-02T02:12:09;77640.22;;;-145.99;100.00
2875;BME280;1445;52.600;13.328;2024-03-02T02:14:35;77636.03;;;-145.99;100.00
2875;BME280;1445;52.600;13.328;2024-03-02T02:17:01;77621.31;;;-145.99;100.00
2875;BME280;1445;52.600;13.328;2024-03-02T02:19:26;77631.81;;;-145.99;100.00
2875;BME280;1445;52.600;13.328;2024-03-02T02:21:51;77633.91;;;-145.99;100.00
2875;BME280;1445;52.600;13.328;2024-03-02T02:24:17;77623.41;;;-145.99;100.00
2875;BME280;1445;52.600;13.328;2024-03-02T02:26:42;77625.53;;;-145.99;100.00
2875;BME280;1445;52.600;13.328;2024-03-02T02:29:07;77621.31;;;-145.99;100.00
2875;BME280;1445;52.600;13.328;2024-03-02T02:31:40;77615.03;;;-145.99;100.00
2875;BME280;1445;52.600;13.328;2024-03-02T02:34:07;77627.63;;;-145.99;100.00
2875;BME280;1445;52.600;13.328;2024-03-02T02:36:33;77621.31;;;-145.99;100.00
2875;BME280;1445;52.600;13.328;2024-03-02T02:39:04;77629.72;;;-145.99;100.00
2875;BME280;1445;52.600;13.328;2024-03-02T02:41:30;77638.13;;;-145.99;100.00
2875;BME280;1445;52.600;13.328;2024-03-02T02:43:56;77636.03;;;-145.99;100.00
2875;BME280;1445;52.600;13.328;2024-03-02T02:46:21;77636.03;;;-145.99;100.00
2875;BME280;1445;52.600;13.328;2024-03-02T02:48:47;77640.22;;;-145.99;100.00
2875;BME280;1445;52.600;13.328;2024-03-02T02:51:12;77646.53;;;-145.99;100.00
2875;BME280;1445;52.600;13.328;2024-03-02T02:53:38;77648.63;;;-145.99;100.00
2875;BME280;1445;52.600;13.328;2024-03-02T02:56:06;77644.41;;;-145.99;100.00
2875;BME280;1445;52.600;13.328;2024-03-02T02:58:31;77640.22;;;-145.99;100.00
2875;BME280;1445;52.600;13.328;2024-03-02T03:00:57;77644.41;;;-145.99;100.00
2875;BME280;1445;52.600;13.328;2024-03-02T03:03:22;77612.91;;;-145.99;100.00
2875;BME280;1445;52.600;13.328;2024-03-02T03:05:48;77600.31;;;-145.99;100.00
2875;BME280;1445;52.600;13.328;2024-03-02T03:08:14;77585.63;;;-145.99;100.00
2875;BME280;1445;52.600;13.328;2024-03-02T03:10:41;77577.22;;;-145.99;100.00
2875;BME280;1445;52.600;13.328;2024-03-02T03:13:06;77560.41;;;-145.99;100.00
2875;BME280;1445;52.600;13.328;2024-03-02T03:15:34;77556.22;;;-145.99;100.00
2875;BME280;1445;52.600;13.328;2024-03-02T03:18:00;77556.22;;;-145.99;100.00
2875;BME280;1445;52.600;13.328;2024-03-02T03:20:25;77560.41;;;-145.99;100.00
2875;BME280;1445;52.600;13.328;2024-03-02T03:22:50;77545.72;;;-145.99;100.00
2875;BME280;1445;52.600;13.328;2024-03-02T03:25:16;77537.31;;;-145.99;100.00
2875;BME280;1445;52.600;13.328;2024-03-02T03:27:41;77531.00;;;-145.99;100.00
2875;BME280;1445;52.600;13.328;2024-03-02T03:30:07;77524.69;;;-145.99;100.00
2875;BME280;1445;52.600;13.328;2024-03-02T03:32:32;77524.69;;;-145.99;100.00
2875;BME280;1445;52.600;13.328;2024-03-02T03:34:58;77516.31;;;-145.99;100.00
2875;BME280;1445;52.600;13.328;2024-03-02T03:37:23;77510.00;;;-145.99;100.00
2875;BME280;1445;52.600;13.328;2024-03-02T03:39:50;77514.19;;;-145.99;100.00
2875;BME280;1445;52.600;13.328;2024-03-02T03:42:16;77512.09;;;-145.99;100.00
2875;BME280;1445;52.600;13.328;2024-03-02T03:44:42;77510.00;;;-145.99;100.00
2875;BME280;1445;52.600;13.328;2024-03-02T03:47:07;77510.00;;;-145.99;100.00
2875;BME280;1445;52.600;13.328;2024-03-02T03:49:32;77505.81;;;-145.99;100.00
2875;BME280;1445;52.600;13.328;2024-03-02T03:51:58;77507.91;;;-145.99;100.00
2875;BME280;1445;52.600;13.328;2024-03-02T03:54:23;77507.91;;;-145.99;100.00
2875;BME280;1445;52.600;13.328;2024-03-02T03:56:48;77512.09;;;-145.99;100.00
2875;BME280;1445;52.600;13.328;2024-03-02T03:59:14;77514.19;;;-145.99;100.00
2875;BME280;1445;52.600;13.328;2024-03-02T04:01:39;77505.81;;;-145.99;100.00
2875;BME280;1445;52.600;13.328;2024-03-02T04:04:05;77510.00;;;-145.99;100.00
2875;BME280;1445;52.600;13.328;2024-03-02T04:06:30;77501.59;;;-145.99;100.00
2875;BME280;1445;52.600;13.328;2024-03-02T04:08:56;77497.41;;;-145.99;100.00
2875;BME280;1445;52.600;13.328;2024-03-02T04:11:21;77497.41;;;-145.99;100.00
2875;BME280;1445;52.600;13.328;2024-03-02T04:13:47;77491.09;;;-145.99;100.00
2875;BME280;1445;52.600;13.328;2024-03-02T04:16:12;77495.31;;;-145.99;100.00
2875;BME280;1445;52.600;13.328;2024-03-02T04:18:37;77476.41;;;-145.99;100.00
2875;BME280;1445;52.600;13.328;2024-03-02T04:21:05;77480.59;;;-145.99;100.00
2875;BME280;1445;52.600;13.328;2024-03-02T04:23:30;77478.50;;;-145.99;100.00
2875;BME280;1445;52.600;13.328;2024-03-02T04:25:55;77486.91;;;-145.99;100.00
2875;BME280;1445;52.600;13.328;2024-03-02T04:28:21;77486.91;;;-145.99;100.00
2875;BME280;1445;52.600;13.328;2024-03-02T04:30:46;77493.19;;;-145.99;100.00
2875;BME280;1445;52.600;13.328;2024-03-02T04:33:12;77491.09;;;-145.99;100.00
2875;BME280;1445;52.600;13.328;2024-03-02T04:35:37;77497.41;;;-145.99;100.00
2875;BME280;1445;52.600;13.328;2024-03-02T04:38:02;77495.31;;;-145.99;100.00
2875;BME280;1445;52.600;13.328;2024-03-02T04:40:28;77491.09;;;-145.99;100.00
2875;BME280;1445;52.600;13.328;2024-03-02T04:42:53;77484.81;;;-145.99;100.00
2875;BME280;1445;52.600;13.328;2024-03-02T04:45:19;77480.59;;;-145.99;100.00
2875;BME280;1445;52.600;13.328;2024-03-02T04:47:44;77480.59;;;-145.99;100.00
2875;BME280;1445;52.600;13.328;2024-03-02T04:50:10;77491.09;;;-145.99;100.00
2875;BME280;1445;52.600;13.328;2024-03-02T04:52:35;77480.59;;;-145.99;100.00
2875;BME280;1445;52.600;13.328;2024-03-02T04:55:01;77489.00;;;-145.99;100.00
2875;BME280;1445;52.600;13.328;2024-03-02T04:57:50;77482.69;;;-145.99;100.00
2875;BME280;1445;52.600;13.328;2024-03-02T05:00:16;77486.91;;;-145.99;100.00
2875;BME280;1445;52.600;13.328;2024-03-02T05:02:42;77482.69;;;-145.99;100.00
2875;BME280;1445;52.600;13.328;2024-03-02T05:05:08;77484.81;;;-145.99;100.00
2875;BME280;1445;52.600;13.328;2024-03-02T05:07:33;77493.19;;;-145.99;100.00
2875;BME280;1445;52.600;13.328;2024-03-02T05:09:59;77493.19;;;-145.99;100.00
2875;BME280;1445;52.600;13.328;2024-03-02T05:12:24;77484.81;;;-145.99;100.00
2875;BME280;1445;52.600;13.328;2024-03-02T05:15:13;77478.50;;;-145.99;100.00
2875;BME280;1445;52.600;13.328;2024-03-02T05:17:40;77489.00;;;-145.99;100.00
2875;BME280;1445;52.600;13.328;2024-03-02T05:20:06;77493.19;;;-145.99;100.00
2875;BME280;1445;52.600;13.328;2024-03-02T05:22:33;77491.09;;;-145.99;100.00
2875;BME280;1445;52.600;13.328;2024-03-02T05:24:59;77501.59;;;-145.99;100.00
2875;BME280;1445;52.600;13.328;2024-03-02T05:27:26;77501.59;;;-145.99;100.00
2875;BME280;1445;52.600;13.328;2024-03-02T05:29:52;77497.41;;;-145.99;100.00
2875;BME280;1445;52.600;13.328;2024-03-02T05:32:17;77514.19;;;-145.99;100.00
2875;BME280;1445;52.600;13.328;2024-03-02T05:34:43;77516.31;;;-145.99;100.00
2875;BME280;1445;52.600;13.328;2024-03-02T05:37:08;77535.22;;;-145.99;100.00
2875;BME280;1445;52.600;13.328;2024-03-02T05:39:33;77539.41;;;-145.99;100.00
2875;BME280;1445;52.600;13.328;2024-03-02T05:41:59;77547.81;;;-145.99;100.00
2875;BME280;1445;52.600;13.328;2024-03-02T05:44:24;77541.50;;;-145.99;100.00
2875;BME280;1445;52.600;13.328;2024-03-02T05:46:49;77568.81;;;-145.99;100.00
2875;BME280;1445;52.600;13.328;2024-03-02T05:49:15;77577.22;;;-145.99;100.00
2875;BME280;1445;52.600;13.328;2024-03-02T05:51:40;77575.09;;;-145.99;100.00
2875;BME280;1445;52.600;13.328;2024-03-02T05:54:06;77583.50;;;-145.99;100.00
2875;BME280;1445;52.600;13.328;2024-03-02T05:56:32;77589.81;;;-145.99;100.00
2875;BME280;1445;52.600;13.328;2024-03-02T05:58:58;77577.22;;;-145.99;100.00
2875;BME280;1445;52.600;13.328;2024-03-02T06:01:34;77587.72;;;-145.99;100.00
2875;BME280;1445;52.600;13.328;2024-03-02T06:03:59;77602.41;;;-145.99;100.00
2875;BME280;1445;52.600;13.328;2024-03-02T06:06:25;77606.63;;;-145.99;100.00
2875;BME280;1445;52.600;13.328;2024-03-02T06:08:51;77610.81;;;-145.99;100.00
2875;BME280;1445;52.600;13.328;2024-03-02T06:11:17;77623.41;;;-145.99;100.00
2875;BME280;1445;52.600;13.328;2024-03-02T06:13:44;77636.03;;;-145.99;100.00
2875;BME280;1445;52.600;13.328;2024-03-02T06:16:09;77631.81;;;-145.99;100.00
2875;BME280;1445;52.600;13.328;2024-03-02T06:18:35;77627.63;;;-145.99;100.00
2875;BME280;1445;52.600;13.328;2024-03-02T06:21:00;77619.22;;;-145.99;100.00
2875;BME280;1445;52.600;13.328;2024-03-02T06:23:28;77629.72;;;-145.99;100.00
2875;BME280;1445;52.600;13.328;2024-03-02T06:25:54;77631.81;;;-145.99;100.00
2875;BME280;1445;52.600;13.328;2024-03-02T06:28:19;77625.53;;;-145.99;100.00
2875;BME280;1445;52.600;13.328;2024-03-02T06:30:45;77623.41;;;-145.99;100.00
2875;BME280;1445;52.600;13.328;2024-03-02T06:33:11;77619.22;;;-145.99;100.00
2875;BME280;1445;52.600;13.328;2024-03-02T06:35:37;77621.31;;;-145.99;100.00
2875;BME280;1445;52.600;13.328;2024-03-02T06:38:03;77610.81;;;-145.99;100.00
2875;BME280;1445;52.600;13.328;2024-03-02T06:40:28;77608.72;;;-145.99;100.00
2875;BME280;1445;52.600;13.328;2024-03-02T06:42:54;77615.03;;;-145.99;100.00
2875;BME280;1445;52.600;13.328;2024-03-02T06:45:19;77623.41;;;-145.99;100.00
2875;BME280;1445;52.600;13.328;2024-03-02T06:47:44;77604.53;;;-145.99;100.00
2875;BME280;1445;52.600;13.328;2024-03-02T06:50:10;77587.72;;;-145.99;100.00
2875;BME280;1445;52.600;13.328;2024-03-02T06:52:36;77591.91;;;-145.99;100.00
2875;BME280;1445;52.600;13.328;2024-03-02T06:55:02;77589.81;;;-145.99;100.00
2875;BME280;1445;52.600;13.328;2024-03-02T06:57:29;77610.81;;;-145.99;100.00
2875;BME280;1445;52.600;13.328;2024-03-02T06:59:54;77600.31;;;-145.99;100.00
2875;BME280;1445;52.600;13.328;2024-03-02T07:02:26;77621.31;;;-145.99;100.00
2875;BME280;1445;52.600;13.328;2024-03-02T07:04:54;77619.22;;;-145.99;100.00
2875;BME280;1445;52.600;13.328;2024-03-02T07:07:20;77615.03;;;-145.99;100.00
2875;BME280;1445;52.600;13.328;2024-03-02T07:09:46;77606.63;;;-145.99;100.00
2875;BME280;1445;52.600;13.328;2024-03-02T07:12:12;77619.22;;;-145.99;100.00
2875;BME280;1445;52.600;13.328;2024-03-02T07:14:37;77610.81;;;-145.99;100.00
2875;BME280;1445;52.600;13.328;2024-03-02T07:17:21;77627.63;;;-145.99;100.00
2875;BME280;1445;52.600;13.328;2024-03-02T07:19:46;77612.91;;;-145.99;100.00
2875;BME280;1445;52.600;13.328;2024-03-02T07:22:12;77598.22;;;-145.99;100.00
2875;BME280;1445;52.600;13.328;2024-03-02T07:24:44;77589.81;;;-145.99;100.00
2875;BME280;1445;52.600;13.328;2024-03-02T07:27:11;77585.63;;;-145.99;100.00
2875;BME280;1445;52.600;13.328;2024-03-02T07:29:38;77585.63;;;-145.99;100.00
2875;BME280;1445;52.600;13.328;2024-03-02T07:32:04;77568.81;;;-145.99;100.00
2875;BME280;1445;52.600;13.328;2024-03-02T07:34:30;77568.81;;;-145.99;100.00
2875;BME280;1445;52.600;13.328;2024-03-02T07:36:56;77573.00;;;-145.99;100.00
2875;BME280;1445;52.600;13.328;2024-03-02T07:39:22;77564.59;;;-145.99;100.00
2875;BME280;1445;52.600;13.328;2024-03-02T07:41:47;77549.91;;;-145.99;100.00
2875;BME280;1445;52.600;13.328;2024-03-02T07:44:13;77539.41;;;-145.99;100.00
2875;BME280;1445;52.600;13.328;2024-03-02T07:46:42;77552.00;;;-145.99;100.00
2875;BME280;1445;52.600;13.328;2024-03-02T07:49:08;77549.91;;;-145.99;100.00
2875;BME280;1445;52.600;13.328;2024-03-02T07:51:34;77547.81;;;-145.99;100.00
2875;BME280;1445;52.600;13.328;2024-03-02T07:54:00;77549.91;;;-145.99;100.00
2875;BME280;1445;52.600;13.328;2024-03-02T07:56:25;77539.41;;;-145.99;100.00
2875;BME280;1445;52.600;13.328;2024-03-02T07:58:51;77531.00;;;-145.99;100.00
2875;BME280;1445;52.600;13.328;2024-03-02T08:01:17;77535.22;;;-145.99;100.00
2875;BME280;1445;52.600;13.328;2024-03-02T08:03:43;77526.81;;;-145.99;100.00
2875;BME280;1445;52.600;13.328;2024-03-02T08:06:13;77522.59;;;-145.99;100.00
2875;BME280;1445;52.600;13.328;2024-03-02T08:08:40;77524.69;;;-145.99;100.00
2875;BME280;1445;52.600;13.328;2024-03-02T08:11:06;77535.22;;;-145.99;100.00
2875;BME280;1445;52.600;13.328;2024-03-02T08:13:31;77531.00;;;-145.99;100.00
2875;BME280;1445;52.600;13.328;2024-03-02T08:15:56;77520.50;;;-145.99;100.00
2875;BME280;1445;52.600;13.328;2024-03-02T08:18:22;77514.19;;;-145.99;100.00
2875;BME280;1445;52.600;13.328;2024-03-02T08:20:47;77512.09;;;-145.99;100.00
2875;BME280;1445;52.600;13.328;2024-03-02T08:23:13;77501.59;;;-145.99;100.00
2875;BME280;1445;52.600;13.328;2024-03-02T08:25:38;77493.19;;;-145.99;100.00
2875;BME280;1445;52.600;13.328;2024-03-02T08:28:04;77480.59;;;-145.99;100.00
2875;BME280;1445;52.600;13.328;2024-03-02T08:30:29;77489.00;;;-145.99;100.00
2875;BME280;1445;52.600;13.328;2024-03-02T08:32:55;77472.19;;;-145.99;100.00
2875;BME280;1445;52.600;13.328;2024-03-02T08:35:20;77451.19;;;-145.99;100.00
2875;BME280;1445;52.600;13.328;2024-03-02T08:37:47;77459.59;;;-145.99;100.00
2875;BME280;1445;52.600;13.328;2024-03-02T08:40:13;77451.19;;;-145.99;100.00
2875;BME280;1445;52.600;13.328;2024-03-02T08:42:39;77451.19;;;-145.99;100.00
2875;BME280;1445;52.600;13.328;2024-03-02T08:45:04;77470.09;;;-145.99;100.00
2875;BME280;1445;52.600;13.328;2024-03-02T08:47:30;77455.41;;;-145.99;100.00
2875;BME280;1445;52.600;13.328;2024-03-02T08:49:55;77455.41;;;-145.99;100.00
2875;BME280;1445;52.600;13.328;2024-03-02T08:52:21;77459.59;;;-145.99;100.00
2875;BME280;1445;52.600;13.328;2024-03-02T08:54:46;77449.09;;;-145.99;100.00
2875;BME280;1445;52.600;13.328;2024-03-02T08:57:11;77447.00;;;-145.99;100.00
2875;BME280;1445;52.600;13.328;2024-03-02T08:59:37;77438.59;;;-145.99;100.00
2875;BME280;1445;52.600;13.328;2024-03-02T09:02:02;77434.41;;;-145.99;100.00
2875;BME280;1445;52.600;13.328;2024-03-02T09:04:28;77421.78;;;-145.99;100.00
2875;BME280;1445;52.600;13.328;2024-03-02T09:06:54;77417.59;;;-145.99;100.00
2875;BME280;1445;52.600;13.328;2024-03-02T09:09:19;77409.19;;;-145.99;100.00
2875;BME280;1445;52.600;13.328;2024-03-02T09:11:46;77421.78;;;-145.99;100.00
2875;BME280;1445;52.600;13.328;2024-03-02T09:14:11;77440.69;;;-145.99;100.00
2875;BME280;1445;52.600;13.328;2024-03-02T09:16:37;77428.09;;;-145.99;100.00
2875;BME280;1445;52.600;13.328;2024-03-02T09:19:03;77413.38;;;-145.99;100.00
2875;BME280;1445;52.600;13.328;2024-03-02T09:21:28;77417.59;;;-145.99;100.00
2875;BME280;1445;52.600;13.328;2024-03-02T09:23:55;77419.69;;;-145.99;100.00
2875;BME280;1445;52.600;13.328;2024-03-02T09:26:20;77400.78;;;-145.99;100.00
2875;BME280;1445;52.600;13.328;2024-03-02T09:28:46;77413.38;;;-145.99;100.00
2875;BME280;1445;52.600;13.328;2024-03-02T09:31:11;77402.88;;;-145.99;100.00
2875;BME280;1445;52.600;13.328;2024-03-02T09:33:37;77411.28;;;-145.99;100.00
2875;BME280;1445;52.600;13.328;2024-03-02T09:36:04;77409.19;;;-145.99;100.00
2875;BME280;1445;52.600;13.328;2024-03-02T09:38:32;77384.00;;;-145.99;100.00
2875;BME280;1445;52.600;13.328;2024-03-02T09:41:00;77386.09;;;-145.99;100.00
2875;BME280;1445;52.600;13.328;2024-03-02T09:43:26;77375.59;;;-145.99;100.00
2875;BME280;1445;52.600;13.328;2024-03-02T09:45:52;77352.50;;;-145.99;100.00
2875;BME280;1445;52.600;13.328;2024-03-02T09:48:18;77371.38;;;-145.99;100.00
2875;BME280;1445;52.600;13.328;2024-03-02T09:50:46;77363.00;;;-145.99;100.00
2875;BME280;1445;52.600;13.328;2024-03-02T09:53:12;77363.00;;;-145.99;100.00
2875;BME280;1445;52.600;13.328;2024-03-02T09:55:37;77333.59;;;-145.99;100.00
2875;BME280;1445;52.600;13.328;2024-03-02T09:58:04;77320.97;;;-145.99;100.00
2875;BME280;1445;52.600;13.328;2024-03-02T10:00:29;77314.69;;;-145.99;100.00
2875;BME280;1445;52.600;13.328;2024-03-02T10:02:54;77323.09;;;-145.99;100.00
2875;BME280;1445;52.600;13.328;2024-03-02T10:05:27;77299.97;;;-145.99;100.00
2875;BME280;1445;52.600;13.328;2024-03-02T10:08:03;77281.09;;;-145.99;100.00
2875;BME280;1445;52.600;13.328;2024-03-02T10:10:38;77243.28;;;-145.99;100.00
2875;BME280;1445;52.600;13.328;2024-03-02T10:13:11;77236.97;;;-145.99;100.00
2875;BME280;1445;52.600;13.328;2024-03-02T10:15:38;77203.38;;;-145.99;100.00
2875;BME280;1445;52.600;13.328;2024-03-02T10:18:08;77173.97;;;-145.99;100.00
2875;BME280;1445;52.600;13.328;2024-03-02T10:20:34;77152.97;;;-145.99;100.00
2875;BME280;1445;52.600;13.328;2024-03-02T10:23:10;77108.88;;;-145.99;100.00
2875;BME280;1445;52.600;13.328;2024-03-02T10:25:36;77110.97;;;-145.99;100.00
2875;BME280;1445;52.600;13.328;2024-03-02T10:28:02;77144.56;;;-145.99;100.00
2875;BME280;1445;52.600;13.328;2024-03-02T10:30:30;77148.78;;;-145.99;100.00
2875;BME280;1445;52.600;13.328;2024-03-02T10:32:55;77125.69;;;-145.99;100.00
2875;BME280;1445;52.600;13.328;2024-03-02T10:35:24;77138.28;;;-145.99;100.00
2875;BME280;1445;52.600;13.328;2024-03-02T10:37:52;77098.38;;;-145.99;100.00
2875;BME280;1445;52.600;13.328;2024-03-02T10:40:17;77085.78;;;-145.99;100.00
2875;BME280;1445;52.600;13.328;2024-03-02T10:42:45;77062.69;;;-145.99;100.00
2875;BME280;1445;52.600;13.328;2024-03-02T10:45:12;77054.28;;;-145.99;100.00
2875;BME280;1445;52.600;13.328;2024-03-02T10:47:38;77035.38;;;-145.99;100.00
2875;BME280;1445;52.600;13.328;2024-03-02T10:50:04;77029.06;;;-145.99;100.00
2875;BME280;1445;52.600;13.328;2024-03-02T10:52:37;76955.56;;;-145.99;100.00
2875;BME280;1445;52.600;13.328;2024-03-02T10:55:03;76924.06;;;-145.99;100.00
2875;BME280;1445;52.600;13.328;2024-03-02T10:58:13;76976.56;;;-145.99;100.00
2875;BME280;1445;52.600;13.328;2024-03-02T11:00:33;77001.78;;;-145.99;100.00
2875;BME280;1445;52.600;13.328;2024-03-02T11:03:07;76911.47;;;-145.99;100.00
2875;BME280;1445;52.600;13.328;2024-03-02T11:05:36;76882.06;;;-145.99;100.00
2875;BME280;1445;52.600;13.328;2024-03-02T11:08:08;76819.09;;;-145.99;100.00
2875;BME280;1445;52.600;13.328;2024-03-02T11:10:48;76781.28;;;-145.99;100.00
2875;BME280;1445;52.600;13.328;2024-03-02T11:13:22;76764.50;;;-145.99;100.00
2875;BME280;1445;52.600;13.328;2024-03-02T11:15:48;76764.50;;;-145.99;100.00
2875;BME280;1445;52.600;13.328;2024-03-02T11:18:15;76827.47;;;-145.99;100.00
2875;BME280;1445;52.600;13.328;2024-03-02T11:20:41;76871.56;;;-145.99;100.00
2875;BME280;1445;52.600;13.328;2024-03-02T11:23:08;76854.78;;;-145.99;100.00
2875;BME280;1445;52.600;13.328;2024-03-02T11:25:35;76900.97;;;-145.99;100.00
2875;BME280;1445;52.600;13.328;2024-03-02T11:28:02;76905.19;;;-145.99;100.00
2875;BME280;1445;52.600;13.328;2024-03-02T11:33:00;76907.28;;;-145.99;100.00
2875;BME280;1445;52.600;13.328;2024-03-02T11:35:26;76917.78;;;-145.99;100.00
2875;BME280;1445;52.600;13.328;2024-03-02T11:37:53;76959.78;;;-145.99;100.00
2875;BME280;1445;52.600;13.328;2024-03-02T11:40:22;76909.38;;;-145.99;100.00
2875;BME280;1445;52.600;13.328;2024-03-02T11:42:48;76879.97;;;-145.99;100.00
2875;BME280;1445;52.600;13.328;2024-03-02T11:45:17;76879.97;;;-145.99;100.00
2875;BME280;1445;52.600;13.328;2024-03-02T11:47:51;76884.19;;;-145.99;100.00
2875;BME280;1445;52.600;13.328;2024-03-02T11:50:29;76919.88;;;-145.99;100.00
2875;BME280;1445;52.600;13.328;2024-03-02T11:52:55;76928.28;;;-145.99;100.00
2875;BME280;1445;52.600;13.328;2024-03-02T11:55:21;76898.88;;;-145.99;100.00
2875;BME280;1445;52.600;13.328;2024-03-02T11:57:48;76926.19;;;-145.99;100.00
2875;BME280;1445;52.600;13.328;2024-03-02T12:00:18;76926.19;;;-145.99;100.00
2875;BME280;1445;52.600;13.328;2024-03-02T12:02:43;76911.47;;;-145.99;100.00
2875;BME280;1445;52.600;13.328;2024-03-02T12:05:15;76888.38;;;-145.99;100.00
2875;BME280;1445;52.600;13.328;2024-03-02T12:07:42;76858.97;;;-145.99;100.00
2875;BME280;1445;52.600;13.328;2024-03-02T12:10:08;76863.19;;;-145.99;100.00
2875;BME280;1445;52.600;13.328;2024-03-02T12:12:34;76867.38;;;-145.99;100.00
2875;BME280;1445;52.600;13.328;2024-03-02T12:14:59;76854.78;;;-145.99;100.00
2875;BME280;1445;52.600;13.328;2024-03-02T12:17:26;76871.56;;;-145.99;100.00
2875;BME280;1445;52.600;13.328;2024-03-02T12:19:51;76873.69;;;-145.99;100.00
2875;BME280;1445;52.600;13.328;2024-03-02T12:22:17;76825.38;;;-145.99;100.00
2875;BME280;1445;52.600;13.328;2024-03-02T12:24:43;76764.50;;;-145.99;100.00
2875;BME280;1445;52.600;13.328;2024-03-02T12:27:12;76686.78;;;-145.99;100.00
2875;BME280;1445;52.600;13.328;2024-03-02T12:29:38;76699.41;;;-145.99;100.00
2875;BME280;1445;52.600;13.328;2024-03-02T12:32:05;76638.50;;;-145.99;100.00
2875;BME280;1445;52.600;13.328;2024-03-02T12:34:30;76590.22;;;-145.99;100.00
2875;BME280;1445;52.600;13.328;2024-03-02T12:36:56;76579.72;;;-145.99;100.00
2875;BME280;1445;52.600;13.328;2024-03-02T12:39:22;76583.91;;;-145.99;100.00
2875;BME280;1445;52.600;13.328;2024-03-02T12:41:51;76588.09;;;-145.99;100.00